Time;durP1;ratioP1;P1;durP2;ratioP2;P2;SDS_P1;SDS_P2;PMS_P1;PMS_P2;Temp;Humidity;BMP_temperature;BMP_pressure;BME280_temperature;BME280_humidity;BME280_pressure;Samples;Min_cycle;Max_cycle;Signal;HPM_P1;HPM_P2
2022/08/31 00:04:48;;;;;;;;;;;24.70;74.40;;;;;;5035597;28;19932;-61
2022/08/31 00:07:14;;;;;;;;;;;24.80;75.30;;;;;;5060590;28;19925;-62
2022/08/31 00:09:39;;;;;;;;;;;24.60;74.70;;;;;;5036136;28;19932;-62
2022/08/31 00:12:05;;;;;;;;;;;24.80;75.10;;;;;;5067756;28;19925;-62
2022/08/31 00:14:31;;;;;;;;;;;24.50;74.60;;;;;;5049856;28;19932;-61
2022/08/31 00:16:56;;;;;;;;;;;24.60;75.00;;;;;;5042964;28;19924;-61
2022/08/31 00:19:22;;;;;;;;;;;24.80;74.90;;;;;;5055367;28;19935;-61
2022/08/31 00:21:48;;;;;;;;;;;24.60;74.90;;;;;;5046136;28;19972;-61
2022/08/31 00:24:13;;;;;;;;;;;24.70;74.80;;;;;;5035319;28;19925;-61
2022/08/31 00:26:39;;;;;;;;;;;24.70;75.10;;;;;;5035303;28;19925;-64
2022/08/31 00:29:05;;;;;;;;;;;24.50;74.90;;;;;;5036326;28;19925;-62
2022/08/31 00:31:30;;;;;;;;;;;24.40;75.00;;;;;;5037939;28;19932;-61
2022/08/31 00:33:56;;;;;;;;;;;24.60;74.70;;;;;;5035425;28;19932;-61
2022/08/31 00:36:22;;;;;;;;;;;24.70;75.20;;;;;;5035388;28;19935;-61
2022/08/31 00:38:48;;;;;;;;;;;24.50;75.20;;;;;;5035941;28;19925;-65
2022/08/31 00:41:14;;;;;;;;;;;24.60;74.90;;;;;;5054351;28;20078;-61
2022/08/31 00:43:40;;;;;;;;;;;24.50;75.20;;;;;;5054791;28;19960;-61
2022/08/31 00:46:06;;;;;;;;;;;24.40;74.90;;;;;;5054842;28;19928;-62
2022/08/31 00:48:31;;;;;;;;;;;24.70;74.80;;;;;;5048923;28;19983;-62
2022/08/31 00:50:57;;;;;;;;;;;24.40;75.00;;;;;;5050269;28;19932;-64
2022/08/31 00:53:23;;;;;;;;;;;24.50;74.70;;;;;;5036176;28;19972;-62
2022/08/31 00:55:49;;;;;;;;;;;24.60;75.90;;;;;;5032947;28;20305;-61
2022/08/31 00:58:14;;;;;;;;;;;24.70;74.90;;;;;;5054589;28;19932;-62
2022/08/31 01:00:41;;;;;;;;;;;24.70;75.10;;;;;;5065111;28;19971;-61
2022/08/31 01:03:07;;;;;;;;;;;24.30;74.80;;;;;;5045496;28;19925;-62
2022/08/31 01:05:33;;;;;;;;;;;24.40;74.90;;;;;;5054019;28;19925;-61
2022/08/31 01:07:59;;;;;;;;;;;24.50;75.00;;;;;;5053326;28;19948;-61
2022/08/31 01:10:25;;;;;;;;;;;24.40;74.90;;;;;;5030208;28;19925;-61
2022/08/31 01:12:51;;;;;;;;;;;24.70;75.30;;;;;;5049629;28;19925;-62
2022/08/31 01:15:16;;;;;;;;;;;24.50;75.30;;;;;;5035659;28;19975;-61
2022/08/31 01:17:42;;;;;;;;;;;24.40;75.00;;;;;;5034620;28;19990;-62
2022/08/31 01:20:29;;;;;;;;;;;24.60;74.90;;;;;;5017792;28;19932;-61
2022/08/31 01:22:54;;;;;;;;;;;24.60;75.30;;;;;;4956891;28;19926;-62
2022/08/31 01:25:20;;;;;;;;;;;24.40;74.90;;;;;;4960788;28;19953;-61
2022/08/31 01:27:45;;;;;;;;;;;24.60;75.20;;;;;;4954017;28;20005;-61
2022/08/31 01:30:11;;;;;;;;;;;24.50;75.00;;;;;;4938150;29;20432;-67
2022/08/31 01:32:37;;;;;;;;;;;24.70;75.40;;;;;;4972367;28;19926;-61
2022/08/31 01:35:03;;;;;;;;;;;24.80;75.40;;;;;;4969652;28;20022;-62
2022/08/31 01:37:29;;;;;;;;;;;24.60;74.90;;;;;;4954322;29;19926;-62
2022/08/31 01:39:55;;;;;;;;;;;24.60;75.00;;;;;;4947516;28;19929;-62
2022/08/31 01:42:20;;;;;;;;;;;24.60;75.00;;;;;;4953774;29;19926;-61
2022/08/31 01:44:46;;;;;;;;;;;24.50;74.80;;;;;;4955707;28;19989;-62
2022/08/31 01:47:11;;;;;;;;;;;24.30;74.70;;;;;;4972451;28;19977;-61
2022/08/31 01:49:37;;;;;;;;;;;24.40;74.70;;;;;;4965794;28;19930;-61
2022/08/31 01:52:03;;;;;;;;;;;24.50;75.00;;;;;;4960065;28;20029;-62
2022/08/31 01:54:29;;;;;;;;;;;24.50;75.00;;;;;;4970135;28;19933;-61
2022/08/31 01:56:54;;;;;;;;;;;24.50;74.90;;;;;;4945558;28;20025;-61
2022/08/31 01:59:20;;;;;;;;;;;24.20;74.80;;;;;;4974828;28;19929;-61
2022/08/31 02:01:47;;;;;;;;;;;24.70;75.20;;;;;;5053647;28;19931;-61
2022/08/31 02:04:13;;;;;;;;;;;24.10;74.90;;;;;;5053877;28;19929;-61
2022/08/31 02:06:42;;;;;;;;;;;24.30;75.10;;;;;;5038913;28;19932;-61
2022/08/31 02:09:07;;;;;;;;;;;24.50;73.90;;;;;;5020414;28;19932;-63
2022/08/31 02:11:33;;;;;;;;;;;24.20;74.80;;;;;;5034071;28;20375;-61
2022/08/31 02:13:59;;;;;;;;;;;24.00;74.70;;;;;;5034402;28;19932;-61
2022/08/31 02:16:24;;;;;;;;;;;24.50;75.00;;;;;;5035124;28;20371;-61
2022/08/31 02:18:50;;;;;;;;;;;24.20;74.70;;;;;;5033872;28;20330;-61
2022/08/31 02:21:15;;;;;;;;;;;24.30;74.90;;;;;;5039243;28;20367;-61
2022/08/31 02:23:41;;;;;;;;;;;24.20;74.80;;;;;;5069184;28;19924;-61
2022/08/31 02:26:07;;;;;;;;;;;24.00;74.80;;;;;;5053227;28;19924;-61
2022/08/31 02:28:32;;;;;;;;;;;24.10;74.80;;;;;;5053704;28;19979;-61
2022/08/31 02:30:58;;;;;;;;;;;24.00;74.80;;;;;;5052950;28;20024;-62
2022/08/31 02:33:24;;;;;;;;;;;24.10;74.70;;;;;;5035015;28;19932;-61
2022/08/31 02:35:50;;;;;;;;;;;23.80;74.70;;;;;;5033721;28;19926;-61
2022/08/31 02:38:15;;;;;;;;;;;23.90;74.90;;;;;;5045254;28;20012;-61
2022/08/31 02:40:41;;;;;;;;;;;24.20;75.00;;;;;;5037784;28;19933;-61
2022/08/31 02:43:07;;;;;;;;;;;23.90;74.80;;;;;;5040157;28;19925;-62
2022/08/31 02:45:33;;;;;;;;;;;24.10;75.20;;;;;;5053563;28;19924;-61
2022/08/31 02:47:59;;;;;;;;;;;24.10;75.10;;;;;;5027952;28;19932;-61
2022/08/31 02:50:25;;;;;;;;;;;24.00;74.80;;;;;;5068949;28;19929;-61
2022/08/31 02:52:53;;;;;;;;;;;23.90;74.90;;;;;;5050577;28;19929;-62
2022/08/31 02:55:20;;;;;;;;;;;24.00;74.80;;;;;;5033528;28;20282;-61
2022/08/31 02:57:46;;;;;;;;;;;24.10;75.00;;;;;;5033560;28;19933;-61
2022/08/31 03:00:12;;;;;;;;;;;24.20;74.90;;;;;;5048367;28;20004;-61
2022/08/31 03:02:39;;;;;;;;;;;24.00;74.70;;;;;;5046986;28;19925;-62
2022/08/31 03:05:06;;;;;;;;;;;24.30;75.00;;;;;;5047397;28;19925;-61
2022/08/31 03:07:36;;;;;;;;;;;24.30;74.70;;;;;;5051717;28;20016;-61
2022/08/31 03:10:02;;;;;;;;;;;24.10;73.70;;;;;;5052027;28;19932;-62
2022/08/31 03:12:28;;;;;;;;;;;24.10;75.00;;;;;;5051444;28;20387;-62
2022/08/31 03:14:53;;;;;;;;;;;23.90;74.80;;;;;;5022415;28;19961;-61
2022/08/31 03:17:19;;;;;;;;;;;24.30;75.10;;;;;;5036923;28;19969;-61
2022/08/31 03:19:44;;;;;;;;;;;24.00;74.90;;;;;;5037104;28;19947;-62
2022/08/31 03:22:12;;;;;;;;;;;24.20;75.10;;;;;;5045229;28;20426;-61
2022/08/31 03:24:37;;;;;;;;;;;24.30;75.10;;;;;;5019698;28;19929;-62
2022/08/31 03:27:03;;;;;;;;;;;24.20;75.00;;;;;;5036695;28;19925;-61
2022/08/31 03:29:29;;;;;;;;;;;24.20;74.90;;;;;;5036707;28;19929;-61
2022/08/31 03:31:54;;;;;;;;;;;24.00;75.00;;;;;;5037502;28;19929;-61
2022/08/31 03:34:20;;;;;;;;;;;24.10;74.90;;;;;;5053607;28;19925;-61
2022/08/31 03:36:45;;;;;;;;;;;24.10;75.20;;;;;;5042398;28;19925;-61
2022/08/31 03:39:11;;;;;;;;;;;24.70;75.30;;;;;;5036997;28;20019;-61
2022/08/31 03:41:36;;;;;;;;;;;23.80;74.90;;;;;;5040896;28;19947;-61
2022/08/31 03:44:02;;;;;;;;;;;24.20;75.20;;;;;;5040812;28;20026;-61
2022/08/31 03:46:31;;;;;;;;;;;23.90;74.90;;;;;;5037076;28;20387;-61
2022/08/31 03:48:57;;;;;;;;;;;24.00;75.00;;;;;;5036044;28;19932;-62
2022/08/31 03:51:23;;;;;;;;;;;23.80;75.20;;;;;;5036185;28;19925;-61
2022/08/31 03:53:49;;;;;;;;;;;23.60;74.80;;;;;;5037313;28;19984;-61
2022/08/31 03:56:14;;;;;;;;;;;24.20;75.20;;;;;;5029989;28;20412;-61
2022/08/31 03:58:40;;;;;;;;;;;23.90;74.90;;;;;;5037242;28;19929;-61
2022/08/31 04:01:05;;;;;;;;;;;23.70;74.90;;;;;;5036121;28;20302;-61
2022/08/31 04:03:31;;;;;;;;;;;23.80;74.90;;;;;;5053156;28;20390;-61
2022/08/31 04:05:57;;;;;;;;;;;24.10;75.10;;;;;;5024171;28;19925;-62
2022/08/31 04:08:24;;;;;;;;;;;23.90;74.60;;;;;;5035910;28;20108;-62
2022/08/31 04:10:51;;;;;;;;;;;23.60;74.60;;;;;;5035931;28;20275;-61
2022/08/31 04:13:16;;;;;;;;;;;23.70;75.20;;;;;;5046966;28;19929;-62
2022/08/31 04:15:42;;;;;;;;;;;23.90;74.90;;;;;;5043829;28;19979;-61
2022/08/31 04:18:07;;;;;;;;;;;23.70;74.80;;;;;;5036673;28;20337;-61
2022/08/31 04:20:36;;;;;;;;;;;23.90;75.60;;;;;;5035680;28;20007;-61
2022/08/31 04:23:02;;;;;;;;;;;24.00;73.80;;;;;;5035638;28;19971;-61
2022/08/31 04:25:28;;;;;;;;;;;24.10;75.00;;;;;;5042764;28;19952;-61
2022/08/31 04:27:55;;;;;;;;;;;23.90;75.10;;;;;;5055473;28;19931;-62
2022/08/31 04:30:21;;;;;;;;;;;23.80;74.90;;;;;;5040001;28;19925;-61
2022/08/31 04:32:47;;;;;;;;;;;24.00;75.00;;;;;;5035418;28;19926;-62
2022/08/31 04:35:12;;;;;;;;;;;23.70;74.90;;;;;;5042556;28;19979;-62
2022/08/31 04:37:40;;;;;;;;;;;23.90;75.00;;;;;;5055333;28;19925;-61
2022/08/31 04:40:06;;;;;;;;;;;24.00;75.10;;;;;;5053930;28;20298;-69
2022/08/31 04:42:35;;;;;;;;;;;23.80;75.00;;;;;;5053040;28;19929;-65
2022/08/31 04:45:01;;;;;;;;;;;23.60;75.00;;;;;;5054105;28;19936;-62
2022/08/31 04:47:27;;;;;;;;;;;23.80;75.10;;;;;;5041736;28;19925;-61
2022/08/31 04:49:52;;;;;;;;;;;23.80;75.00;;;;;;5036802;28;20382;-62
2022/08/31 04:52:18;;;;;;;;;;;23.80;75.10;;;;;;5036698;28;20407;-62
2022/08/31 04:54:44;;;;;;;;;;;23.70;75.10;;;;;;5049160;28;20488;-61
2022/08/31 04:57:09;;;;;;;;;;;23.70;75.10;;;;;;5053154;28;19972;-61
2022/08/31 04:59:35;;;;;;;;;;;24.10;75.30;;;;;;5054899;28;19932;-61
2022/08/31 05:02:02;;;;;;;;;;;23.90;75.20;;;;;;5048866;28;20016;-67
2022/08/31 05:04:28;;;;;;;;;;;24.10;75.20;;;;;;5024978;28;19925;-61
2022/08/31 05:06:53;;;;;;;;;;;23.90;75.10;;;;;;5038790;28;20015;-61
2022/08/31 05:09:21;;;;;;;;;;;24.00;74.70;;;;;;5054705;28;19925;-61
2022/08/31 05:11:48;;;;;;;;;;;24.30;75.20;;;;;;5045104;28;20338;-61
2022/08/31 05:14:14;;;;;;;;;;;24.10;75.00;;;;;;5034831;28;20294;-61
2022/08/31 05:16:40;;;;;;;;;;;24.20;75.00;;;;;;5034354;28;19925;-61
2022/08/31 05:19:05;;;;;;;;;;;24.30;74.90;;;;;;5049567;28;19925;-61
2022/08/31 05:21:32;;;;;;;;;;;24.20;74.80;;;;;;5041082;28;19940;-61
2022/08/31 05:24:05;;;;;;;;;;;24.30;75.00;;;;;;5034694;28;20026;-61
2022/08/31 05:26:31;;;;;;;;;;;24.40;73.60;;;;;;5034524;28;20272;-61
2022/08/31 05:28:59;;;;;;;;;;;24.30;75.00;;;;;;5034450;28;19940;-61
2022/08/31 05:31:28;;;;;;;;;;;24.30;74.90;;;;;;5034370;28;19933;-61
2022/08/31 05:33:54;;;;;;;;;;;24.20;74.60;;;;;;5053605;28;20021;-67
2022/08/31 05:36:20;;;;;;;;;;;24.50;74.70;;;;;;5061093;28;19933;-61
2022/08/31 05:38:46;;;;;;;;;;;24.50;74.40;;;;;;5049394;28;19929;-61
2022/08/31 05:41:11;;;;;;;;;;;24.40;74.40;;;;;;5019474;28;19935;-61
2022/08/31 05:43:37;;;;;;;;;;;24.80;74.30;;;;;;5042232;28;19979;-61
2022/08/31 05:46:07;;;;;;;;;;;24.70;73.90;;;;;;5036768;28;19932;-61
2022/08/31 05:48:33;;;;;;;;;;;25.00;72.90;;;;;;5035156;28;20039;-62
2022/08/31 05:51:00;;;;;;;;;;;25.10;74.00;;;;;;5042574;28;19925;-61
2022/08/31 05:53:26;;;;;;;;;;;25.30;73.90;;;;;;5034722;28;19925;-61
2022/08/31 05:55:57;;;;;;;;;;;25.40;73.60;;;;;;5034448;28;19956;-61
2022/08/31 05:58:22;;;;;;;;;;;25.40;73.50;;;;;;5034064;28;19926;-61
2022/08/31 06:00:48;;;;;;;;;;;25.70;73.40;;;;;;5041684;28;20058;-61
2022/08/31 06:03:14;;;;;;;;;;;25.50;72.80;;;;;;5053859;28;19971;-61
2022/08/31 06:05:40;;;;;;;;;;;24.80;72.30;;;;;;5036609;28;20379;-60
2022/08/31 06:08:06;;;;;;;;;;;25.70;72.60;;;;;;5033964;28;19925;-61
2022/08/31 06:10:32;;;;;;;;;;;25.80;72.70;;;;;;5033893;28;20024;-62
2022/08/31 06:12:57;;;;;;;;;;;26.20;72.80;;;;;;5036629;28;19925;-62
2022/08/31 06:15:23;;;;;;;;;;;26.10;72.50;;;;;;5035929;28;20315;-61
2022/08/31 06:17:49;;;;;;;;;;;26.10;72.30;;;;;;5033580;28;20371;-61
2022/08/31 06:20:16;;;;;;;;;;;26.10;72.00;;;;;;5034160;28;19921;-61
2022/08/31 06:22:45;;;;;;;;;;;26.30;72.10;;;;;;5033965;28;20401;-62
2022/08/31 06:25:16;;;;;;;;;;;26.60;72.10;;;;;;5051740;28;19959;-67
2022/08/31 06:27:42;;;;;;;;;;;26.30;72.40;;;;;;5033422;28;19944;-70
2022/08/31 06:30:08;;;;;;;;;;;26.60;71.60;;;;;;5035123;28;20374;-62
2022/08/31 06:32:34;;;;;;;;;;;26.80;71.50;;;;;;5053474;28;19955;-62
2022/08/31 06:35:00;;;;;;;;;;;27.00;71.40;;;;;;5067078;28;19964;-72
2022/08/31 06:37:25;;;;;;;;;;;26.90;71.30;;;;;;5043858;28;19925;-69
2022/08/31 06:39:52;;;;;;;;;;;26.90;70.80;;;;;;5069635;28;19935;-76
2022/08/31 06:42:18;;;;;;;;;;;27.00;70.10;;;;;;5052551;28;19967;-74
2022/08/31 06:44:44;;;;;;;;;;;27.20;69.70;;;;;;5053865;28;19975;-67
2022/08/31 06:47:10;;;;;;;;;;;27.10;69.30;;;;;;5036196;28;19925;-76
2022/08/31 06:49:35;;;;;;;;;;;27.00;68.80;;;;;;5037331;28;19933;-64
2022/08/31 06:52:01;;;;;;;;;;;29.30;70.40;;;;;;5042360;28;19932;-73
2022/08/31 06:54:27;;;;;;;;;;;27.10;68.70;;;;;;5057318;28;19980;-75
2022/08/31 06:56:53;;;;;;;;;;;26.90;68.40;;;;;;5022634;28;19932;-62
2022/08/31 06:59:18;;;;;;;;;;;26.90;68.40;;;;;;5037901;28;19932;-64
2022/08/31 07:01:44;;;;;;;;;;;27.20;68.80;;;;;;5036943;28;20414;-73
2022/08/31 07:04:10;;;;;;;;;;;27.00;68.20;;;;;;5022134;28;19972;-67
2022/08/31 07:06:36;;;;;;;;;;;26.70;68.00;;;;;;5056749;28;19925;-62
2022/08/31 07:09:03;;;;;;;;;;;26.80;68.50;;;;;;5029492;28;20275;-76
2022/08/31 07:11:32;;;;;;;;;;;26.90;68.40;;;;;;5036915;28;20012;-67
2022/08/31 07:13:58;;;;;;;;;;;26.60;68.60;;;;;;5057201;28;19925;-62
2022/08/31 07:16:24;;;;;;;;;;;26.60;68.60;;;;;;5036804;28;20497;-71
2022/08/31 07:18:49;;;;;;;;;;;26.50;68.60;;;;;;5037093;28;19925;-62
2022/08/31 07:21:18;;;;;;;;;;;26.80;68.70;;;;;;5056444;28;19924;-63
2022/08/31 07:23:44;;;;;;;;;;;26.90;67.50;;;;;;5056683;28;20021;-66
2022/08/31 07:26:11;;;;;;;;;;;26.80;68.60;;;;;;5050183;28;19976;-62
2022/08/31 07:28:37;;;;;;;;;;;26.70;69.70;;;;;;5035554;28;20031;-62
2022/08/31 07:31:04;;;;;;;;;;;26.30;68.40;;;;;;5048284;28;19979;-65
2022/08/31 07:33:36;;;;;;;;;;;26.40;68.40;;;;;;5056462;28;19924;-62
2022/08/31 07:36:06;;;;;;;;;;;26.60;68.70;;;;;;5045963;28;19925;-65
2022/08/31 07:44:00;;;;;;;;;;;26.60;67.50;;;;;;5054701;28;19931;-62
2022/08/31 07:46:30;;;;;;;;;;;26.20;68.20;;;;;;5054294;28;20370;-65
2022/08/31 07:48:56;;;;;;;;;;;26.50;67.30;;;;;;5051248;28;19928;-64
2022/08/31 07:51:22;;;;;;;;;;;26.50;68.90;;;;;;5050716;28;19940;-62
2022/08/31 07:53:48;;;;;;;;;;;26.30;68.50;;;;;;5036245;28;19925;-65
2022/08/31 07:56:17;;;;;;;;;;;26.40;68.50;;;;;;5037772;28;19931;-66
2022/08/31 07:58:44;;;;;;;;;;;26.30;67.20;;;;;;5049023;28;19951;-65
2022/08/31 08:01:10;;;;;;;;;;;26.50;68.80;;;;;;5043643;28;19932;-62
2022/08/31 08:03:39;;;;;;;;;;;26.30;68.20;;;;;;5046726;28;19924;-62
2022/08/31 08:06:11;;;;;;;;;;;26.40;68.90;;;;;;5035753;28;20012;-62
2022/08/31 08:08:37;;;;;;;;;;;26.50;68.00;;;;;;5017931;28;20011;-62
2022/08/31 08:11:03;;;;;;;;;;;26.30;68.50;;;;;;5042678;28;20003;-62
2022/08/31 08:13:28;;;;;;;;;;;26.50;68.40;;;;;;5036483;28;19925;-62
2022/08/31 08:15:54;;;;;;;;;;;26.50;68.60;;;;;;5036773;28;19929;-63
2022/08/31 08:18:20;;;;;;;;;;;26.60;68.70;;;;;;5035524;28;19933;-63
2022/08/31 08:20:46;;;;;;;;;;;26.20;68.40;;;;;;5035822;28;19933;-63
2022/08/31 08:23:13;;;;;;;;;;;26.40;68.40;;;;;;5035712;28;19932;-62
2022/08/31 08:25:38;;;;;;;;;;;26.40;68.60;;;;;;5052364;28;19924;-62
2022/08/31 08:28:04;;;;;;;;;;;26.40;68.40;;;;;;5045161;28;20341;-64
2022/08/31 08:30:30;;;;;;;;;;;26.60;68.40;;;;;;5035289;28;19925;-62
2022/08/31 08:33:00;;;;;;;;;;;26.70;68.50;;;;;;5035971;28;20018;-66
2022/08/31 08:35:30;;;;;;;;;;;26.40;68.30;;;;;;5039454;28;19925;-70
2022/08/31 08:37:56;;;;;;;;;;;26.50;68.40;;;;;;5046609;28;19925;-63
2022/08/31 08:40:28;;;;;;;;;;;26.50;68.20;;;;;;5035470;28;19936;-66
2022/08/31 08:42:53;;;;;;;;;;;26.60;66.90;;;;;;5017451;28;19991;-66
2022/08/31 08:45:19;;;;;;;;;;;26.60;68.00;;;;;;5030581;28;19926;-65
2022/08/31 08:47:49;;;;;;;;;;;26.60;68.30;;;;;;5054083;28;19925;-64
2022/08/31 08:50:17;;;;;;;;;;;26.70;68.30;;;;;;5052552;28;19931;-62
2022/08/31 08:52:43;;;;;;;;;;;26.60;68.50;;;;;;5048171;28;20007;-64
2022/08/31 08:55:20;;;;;;;;;;;26.70;68.70;;;;;;5027605;28;20339;-63
2022/08/31 08:57:48;;;;;;;;;;;26.60;68.40;;;;;;5034833;28;19972;-62
2022/08/31 09:00:18;;;;;;;;;;;26.50;67.80;;;;;;5024190;28;19925;-72
2022/08/31 09:02:54;;;;;;;;;;;26.40;66.40;;;;;;5049195;28;20275;-74
2022/08/31 09:05:23;;;;;;;;;;;26.50;66.50;;;;;;5034501;28;19928;-74
2022/08/31 09:07:56;;;;;;;;;;;26.50;66.70;;;;;;5036463;28;19931;-65
2022/08/31 09:10:41;;;;;;;;;;;26.40;66.40;;;;;;5053484;28;19925;-66
2022/08/31 09:13:12;;;;;;;;;;;26.60;66.50;;;;;;5051154;28;19932;-66
2022/08/31 09:15:53;;;;;;;;;;;26.30;66.00;;;;;;5046607;28;19924;-66
2022/08/31 09:18:25;;;;;;;;;;;26.30;66.10;;;;;;5035125;28;19932;-73
2022/08/31 09:21:04;;;;;;;;;;;26.60;66.60;;;;;;5054134;28;19925;-74
2022/08/31 09:23:31;;;;;;;;;;;26.30;66.50;;;;;;5054519;28;19924;-74
2022/08/31 09:25:57;;;;;;;;;;;26.50;68.10;;;;;;5054164;28;19929;-69
2022/08/31 09:28:34;;;;;;;;;;;26.50;67.90;;;;;;5052446;28;19990;-62
2022/08/31 09:31:00;;;;;;;;;;;26.40;66.80;;;;;;5040499;28;19932;-73
2022/08/31 09:33:27;;;;;;;;;;;26.40;67.70;;;;;;5046948;28;19924;-62
2022/08/31 09:35:57;;;;;;;;;;;26.30;67.70;;;;;;5053156;28;19925;-62
2022/08/31 09:38:40;;;;;;;;;;;26.10;67.80;;;;;;5054129;28;19925;-74
2022/08/31 09:41:25;;;;;;;;;;;26.30;67.30;;;;;;5051087;28;19940;-62
2022/08/31 09:43:50;;;;;;;;;;;26.40;66.70;;;;;;5053327;28;19931;-62
2022/08/31 09:46:26;;;;;;;;;;;26.40;68.20;;;;;;5036127;28;20264;-62
2022/08/31 09:48:55;;;;;;;;;;;26.30;66.20;;;;;;5054086;28;20378;-62
2022/08/31 09:51:20;;;;;;;;;;;26.20;67.50;;;;;;5053731;28;20374;-62
2022/08/31 09:56:30;;;;;;;;;;;26.40;66.40;;;;;;5052983;28;19924;-71
2022/08/31 09:59:01;;;;;;;;;;;26.60;67.50;;;;;;5053756;28;20366;-62
2022/08/31 10:01:34;;;;;;;;;;;26.20;66.40;;;;;;5048015;28;19975;-73
2022/08/31 10:04:06;;;;;;;;;;;26.50;66.50;;;;;;5033863;28;20291;-70
2022/08/31 10:06:44;;;;;;;;;;;26.10;66.00;;;;;;5053464;28;19929;-71
2022/08/31 10:09:19;;;;;;;;;;;26.30;65.90;;;;;;5047441;28;19932;-67
2022/08/31 10:11:46;;;;;;;;;;;26.40;65.90;;;;;;5046744;28;19924;-72
2022/08/31 10:14:49;;;;;;;;;;;26.20;66.70;;;;;;5067455;28;20365;-69
2022/08/31 10:17:17;;;;;;;;;;;26.30;65.30;;;;;;5011986;28;20005;-70
2022/08/31 10:19:51;;;;;;;;;;;26.40;67.10;;;;;;5005877;28;19933;-66
2022/08/31 10:22:29;;;;;;;;;;;26.30;66.90;;;;;;5010907;28;20311;-66
2022/08/31 10:25:13;;;;;;;;;;;26.50;65.10;;;;;;4996361;28;20326;-65
2022/08/31 10:27:47;;;;;;;;;;;26.10;64.70;;;;;;5014627;28;20422;-72
2022/08/31 10:30:21;;;;;;;;;;;26.20;65.10;;;;;;4999440;28;19925;-64
2022/08/31 10:32:58;;;;;;;;;;;26.50;65.30;;;;;;5007822;28;19981;-63
2022/08/31 10:35:44;;;;;;;;;;;26.40;65.10;;;;;;5011585;28;19932;-63
2022/08/31 10:38:39;;;;;;;;;;;26.20;64.50;;;;;;4999511;28;20379;-65
2022/08/31 10:41:08;;;;;;;;;;;26.20;64.70;;;;;;4995825;28;19926;-63
2022/08/31 10:43:37;;;;;;;;;;;26.10;64.30;;;;;;4994629;28;19952;-64
2022/08/31 10:46:04;;;;;;;;;;;26.20;65.60;;;;;;4993453;28;19926;-64
2022/08/31 10:48:30;;;;;;;;;;;26.50;65.60;;;;;;4995927;28;20002;-62
2022/08/31 10:51:01;;;;;;;;;;;26.10;65.50;;;;;;4979569;28;20443;-62
2022/08/31 10:53:36;;;;;;;;;;;26.00;64.10;;;;;;4995627;28;19980;-75
2022/08/31 10:56:11;;;;;;;;;;;26.00;64.30;;;;;;5003293;28;19929;-75
2022/08/31 10:58:55;;;;;;;;;;;26.00;64.30;;;;;;5015307;28;19925;-75
2022/08/31 11:01:38;;;;;;;;;;;26.00;64.30;;;;;;5002074;28;19930;-62
2022/08/31 11:04:07;;;;;;;;;;;26.30;64.70;;;;;;4995422;28;19937;-61
2022/08/31 11:06:33;;;;;;;;;;;26.20;64.60;;;;;;5015983;28;20056;-62
2022/08/31 11:09:11;;;;;;;;;;;26.10;65.30;;;;;;5011765;28;20016;-61
2022/08/31 11:11:43;;;;;;;;;;;26.00;64.70;;;;;;4995217;28;19932;-62
2022/08/31 11:14:43;;;;;;;;;;;26.40;65.10;;;;;;4995290;28;19925;-63
2022/08/31 11:17:31;;;;;;;;;;;26.30;65.00;;;;;;4939378;28;20347;-61
2022/08/31 11:19:59;;;;;;;;;;;26.10;65.00;;;;;;4899599;29;19935;-68
2022/08/31 11:22:33;;;;;;;;;;;26.30;65.00;;;;;;4899598;29;20369;-67
2022/08/31 11:25:06;;;;;;;;;;;26.40;64.40;;;;;;4914985;29;20433;-73
2022/08/31 11:27:37;;;;;;;;;;;26.50;64.30;;;;;;4897925;29;19927;-61
2022/08/31 11:30:05;;;;;;;;;;;26.50;64.80;;;;;;4898931;29;19986;-68
2022/08/31 11:32:36;;;;;;;;;;;26.20;66.10;;;;;;4898269;29;20318;-66
2022/08/31 11:35:07;;;;;;;;;;;26.40;64.90;;;;;;4883544;29;19966;-73
2022/08/31 11:37:49;;;;;;;;;;;26.50;66.50;;;;;;4897564;29;19927;-72
2022/08/31 11:40:36;;;;;;;;;;;26.60;65.00;;;;;;4898398;29;19979;-75
2022/08/31 11:43:04;;;;;;;;;;;26.50;65.10;;;;;;4898041;29;19934;-76
2022/08/31 11:45:36;;;;;;;;;;;26.70;66.50;;;;;;4883659;29;19927;-75
2022/08/31 11:48:03;;;;;;;;;;;26.70;65.80;;;;;;4899219;29;19932;-76
2022/08/31 11:50:35;;;;;;;;;;;26.70;66.20;;;;;;4899027;29;19934;-71
2022/08/31 11:53:01;;;;;;;;;;;26.60;64.60;;;;;;4909533;29;19934;-74
2022/08/31 11:55:46;;;;;;;;;;;26.30;65.60;;;;;;4934097;29;19981;-75
2022/08/31 11:58:21;;;;;;;;;;;26.70;64.60;;;;;;5014296;28;19925;-64
2022/08/31 12:00:50;;;;;;;;;;;26.70;64.60;;;;;;5017011;28;19929;-63
2022/08/31 12:03:49;;;;;;;;;;;26.50;64.80;;;;;;5025731;28;19925;-72
2022/08/31 12:06:23;;;;;;;;;;;26.70;65.00;;;;;;5033677;28;19925;-75
2022/08/31 12:08:53;;;;;;;;;;;26.80;64.70;;;;;;5032846;28;19925;-71
2022/08/31 12:11:19;;;;;;;;;;;26.80;65.20;;;;;;5017696;28;20318;-75
2022/08/31 12:13:53;;;;;;;;;;;26.60;65.30;;;;;;5015541;28;19925;-75
2022/08/31 12:16:19;;;;;;;;;;;26.70;64.60;;;;;;5017064;28;19948;-76
2022/08/31 12:18:45;;;;;;;;;;;26.70;66.00;;;;;;5033530;28;19925;-76
2022/08/31 12:24:26;;;;;;;;;;;26.70;64.20;;;;;;5015177;28;19925;-76
2022/08/31 12:26:57;;;;;;;;;;;26.80;64.00;;;;;;5015613;28;19971;-62
2022/08/31 12:29:24;;;;;;;;;;;26.70;63.90;;;;;;5033325;28;19925;-62
2022/08/31 12:32:10;;;;;;;;;;;26.80;65.60;;;;;;5033435;28;19947;-76
2022/08/31 12:34:46;;;;;;;;;;;26.30;63.80;;;;;;5015288;28;19933;-76
2022/08/31 12:37:18;;;;;;;;;;;26.70;64.30;;;;;;5015524;28;20283;-76
2022/08/31 12:39:44;;;;;;;;;;;26.70;63.90;;;;;;5033151;28;19929;-76
2022/08/31 12:42:09;;;;;;;;;;;26.80;64.80;;;;;;5014452;28;20406;-76
2022/08/31 12:44:36;;;;;;;;;;;26.70;64.70;;;;;;5040604;28;19932;-76
2022/08/31 12:47:02;;;;;;;;;;;26.40;64.80;;;;;;5048116;28;19937;-78
2022/08/31 12:49:27;;;;;;;;;;;26.80;64.80;;;;;;5034984;28;19922;-70
2022/08/31 12:51:56;;;;;;;;;;;26.70;64.90;;;;;;5034936;28;19976;-77
2022/08/31 12:54:40;;;;;;;;;;;26.50;63.60;;;;;;5034616;28;19961;-76
2022/08/31 12:57:09;;;;;;;;;;;27.00;63.50;;;;;;5030838;28;19925;-75
2022/08/31 12:59:37;;;;;;;;;;;26.70;63.00;;;;;;5022783;28;19925;-64
2022/08/31 13:02:03;;;;;;;;;;;26.50;62.80;;;;;;5034933;28;19925;-74
2022/08/31 13:04:29;;;;;;;;;;;26.50;63.90;;;;;;5050366;28;19925;-80
2022/08/31 13:06:54;;;;;;;;;;;26.70;65.10;;;;;;5042481;28;19925;-76
2022/08/31 13:09:25;;;;;;;;;;;26.60;64.60;;;;;;5054310;28;19935;-73
2022/08/31 13:11:51;;;;;;;;;;;26.40;63.50;;;;;;5039845;28;19925;-77
2022/08/31 13:14:19;;;;;;;;;;;26.50;65.20;;;;;;5028272;28;20303;-78
2022/08/31 13:16:52;;;;;;;;;;;26.30;65.00;;;;;;5024697;28;20353;-74
2022/08/31 13:19:28;;;;;;;;;;;26.80;63.90;;;;;;5053871;28;19951;-62
2022/08/31 13:21:57;;;;;;;;;;;26.60;63.40;;;;;;5016719;28;19987;-62
2022/08/31 13:24:29;;;;;;;;;;;26.50;65.00;;;;;;5033477;28;20009;-77
2022/08/31 13:27:05;;;;;;;;;;;26.60;63.60;;;;;;5049695;28;19926;-77
2022/08/31 13:29:39;;;;;;;;;;;26.60;63.90;;;;;;5035890;28;19933;-77
2022/08/31 13:32:05;;;;;;;;;;;27.00;66.10;;;;;;5047794;28;19925;-75
2022/08/31 13:34:38;;;;;;;;;;;26.50;65.30;;;;;;5034575;28;20342;-76
2022/08/31 13:37:04;;;;;;;;;;;26.40;65.00;;;;;;5041116;28;20298;-76
2022/08/31 13:39:33;;;;;;;;;;;26.40;64.70;;;;;;5069476;28;19929;-76
2022/08/31 13:42:04;;;;;;;;;;;26.60;65.10;;;;;;5069291;28;19925;-62
2022/08/31 13:44:30;;;;;;;;;;;26.90;64.10;;;;;;5053581;28;19970;-76
2022/08/31 13:46:59;;;;;;;;;;;26.50;64.50;;;;;;5068587;28;19932;-73
2022/08/31 13:49:29;;;;;;;;;;;26.60;65.40;;;;;;5053016;28;19927;-69
2022/08/31 13:51:55;;;;;;;;;;;26.50;65.50;;;;;;5063527;28;19947;-71
2022/08/31 13:54:25;;;;;;;;;;;26.60;65.50;;;;;;5051950;28;20377;-62
2022/08/31 13:56:53;;;;;;;;;;;26.60;63.80;;;;;;5054350;28;19933;-63
2022/08/31 13:59:22;;;;;;;;;;;26.40;64.00;;;;;;5061347;28;19925;-63
2022/08/31 14:01:48;;;;;;;;;;;26.40;64.60;;;;;;5052598;28;20325;-62
2022/08/31 14:04:48;;;;;;;;;;;26.60;65.00;;;;;;5050017;28;19932;-76
2022/08/31 14:07:20;;;;;;;;;;;26.60;63.50;;;;;;5049815;28;20016;-67
2022/08/31 14:09:46;;;;;;;;;;;26.60;64.20;;;;;;5032059;28;20325;-62
2022/08/31 14:12:34;;;;;;;;;;;26.40;65.30;;;;;;5043472;28;19928;-67
2022/08/31 14:15:04;;;;;;;;;;;26.50;63.70;;;;;;5025033;28;19929;-76
2022/08/31 14:17:30;;;;;;;;;;;26.30;66.00;;;;;;5058443;28;20002;-68
2022/08/31 14:19:57;;;;;;;;;;;26.50;65.70;;;;;;5029407;28;19925;-73
2022/08/31 14:22:26;;;;;;;;;;;26.50;65.50;;;;;;5049597;28;19936;-74
2022/08/31 14:24:54;;;;;;;;;;;26.30;65.30;;;;;;5041201;28;19970;-73
2022/08/31 14:27:20;;;;;;;;;;;26.50;64.80;;;;;;5045052;28;20279;-70
2022/08/31 14:29:46;;;;;;;;;;;26.10;65.60;;;;;;5046334;28;19932;-73
2022/08/31 14:32:11;;;;;;;;;;;26.50;66.10;;;;;;5048373;28;20015;-66
2022/08/31 14:34:46;;;;;;;;;;;26.10;65.60;;;;;;5045572;28;19936;-64
2022/08/31 14:37:18;;;;;;;;;;;26.30;66.40;;;;;;5047454;28;19983;-74
2022/08/31 14:39:54;;;;;;;;;;;26.20;66.60;;;;;;5042860;28;19980;-73